Time;durP1;ratioP1;P1;durP2;ratioP2;P2;SDS_P1;SDS_P2;PMS_P1;PMS_P2;Temp;Humidity;BMP_temperature;BMP_pressure;BME280_temperature;BME280_humidity;BME280_pressure;Samples;Min_cycle;Max_cycle;Signal;HPM_P1;HPM_P2
2022/06/29 00:00:27;;;;;;;;;;;;;;;18.37;58.81;101548.56;5090915;28;19915;-55
2022/06/29 00:02:53;;;;;;;;;;;;;;;18.29;58.39;101536.16;5090189;28;19995;-54
2022/06/29 00:05:21;;;;;;;;;;;;;;;18.32;58.55;101545.66;5089761;28;20379;-52
2022/06/29 00:07:47;;;;;;;;;;;;;;;18.30;58.80;101542.34;5087709;28;19919;-54
2022/06/29 00:10:13;;;;;;;;;;;;;;;18.30;58.78;101542.34;5088570;28;19912;-55
2022/06/29 00:12:38;;;;;;;;;;;;;;;18.29;58.71;101543.38;5088231;28;19912;-54
2022/06/29 00:15:04;;;;;;;;;;;;;;;18.27;58.78;101539.03;5088888;28;19916;-55
2022/06/29 00:17:31;;;;;;;;;;;;;;;18.24;58.61;101542.16;5089114;28;19912;-55
2022/06/29 00:19:56;;;;;;;;;;;;;;;18.22;58.99;101536.13;5090442;28;19923;-53
2022/06/29 00:22:21;;;;;;;;;;;;;;;18.20;59.04;101535.50;5084845;28;19912;-54
2022/06/29 00:24:47;;;;;;;;;;;;;;;18.19;58.85;101531.16;5087953;28;19912;-52
2022/06/29 00:27:12;;;;;;;;;;;;;;;18.18;59.07;101534.03;5090768;28;20019;-54
2022/06/29 00:29:37;;;;;;;;;;;;;;;18.16;59.11;101538.78;5091378;28;19908;-53
2022/06/29 00:32:03;;;;;;;;;;;;;;;18.15;59.09;101529.06;5089583;28;20216;-55
2022/06/29 00:34:28;;;;;;;;;;;;;;;18.12;58.82;101527.63;5089771;28;19941;-56
2022/06/29 00:36:53;;;;;;;;;;;;;;;18.10;59.02;101529.69;5089182;28;19939;-55
2022/06/29 00:39:18;;;;;;;;;;;;;;;18.10;58.80;101524.31;5088001;28;19955;-58
2022/06/29 00:41:45;;;;;;;;;;;;;;;18.07;59.21;101527.41;5089378;28;20549;-53
2022/06/29 00:44:14;;;;;;;;;;;;;;;18.04;59.44;101517.06;5085650;28;19920;-54
2022/06/29 00:46:46;;;;;;;;;;;;;;;18.03;59.48;101522.66;5089866;28;19922;-54
2022/06/29 00:49:12;;;;;;;;;;;;;;;18.01;59.58;101519.34;5085001;28;19918;-56
2022/06/29 00:51:37;;;;;;;;;;;;;;;17.97;59.58;101518.91;5089203;28;20379;-53
2022/06/29 00:54:03;;;;;;;;;;;;;;;17.96;59.47;101519.94;5083552;28;19947;-53
2022/06/29 00:56:31;;;;;;;;;;;;;;;17.94;59.88;101519.31;5087467;28;19916;-53
2022/06/29 00:58:57;;;;;;;;;;;;;;;17.90;59.94;101516.19;5088986;28;19919;-54
2022/06/29 01:01:23;;;;;;;;;;;;;;;17.87;59.98;101507.69;5087626;28;20003;-53
2022/06/29 01:03:48;;;;;;;;;;;;;;;17.86;59.80;101506.03;5087670;28;20000;-54
2022/06/29 01:06:13;;;;;;;;;;;;;;;17.82;59.74;101510.16;5087695;28;19923;-54
2022/06/29 01:08:40;;;;;;;;;;;;;;;17.78;60.05;101499.00;5085237;28;19930;-55
2022/06/29 01:11:05;;;;;;;;;;;;;;;17.75;60.20;101495.91;5087885;28;19962;-53
2022/06/29 01:13:30;;;;;;;;;;;;;;;17.73;60.27;101497.97;5087097;28;19947;-54
2022/06/29 01:15:55;;;;;;;;;;;;;;;17.69;60.58;101489.47;5087087;28;19912;-53
2022/06/29 01:18:20;;;;;;;;;;;;;;;17.67;60.05;101506.78;5087064;28;19919;-55
2022/06/29 01:20:45;;;;;;;;;;;;;;;17.65;60.31;101505.13;5082824;28;19916;-51
2022/06/29 01:23:11;;;;;;;;;;;;;;;17.64;60.39;101498.13;5084137;28;19912;-55
2022/06/29 01:25:36;;;;;;;;;;;;;;;17.61;60.70;101503.84;5079675;28;20100;-54
2022/06/29 01:28:01;;;;;;;;;;;;;;;17.58;60.67;101503.44;5081886;28;19916;-55
2022/06/29 01:30:27;;;;;;;;;;;;;;;17.56;60.71;101505.50;5080066;28;20339;-54
2022/06/29 01:32:52;;;;;;;;;;;;;;;17.53;60.92;101500.53;5083495;28;19973;-53
2022/06/29 01:35:18;;;;;;;;;;;;;;;17.52;60.81;101497.00;5081483;28;19981;-52
2022/06/29 01:37:44;;;;;;;;;;;;;;;17.50;61.17;101496.38;5080816;28;19942;-54
2022/06/29 01:40:10;;;;;;;;;;;;;;;17.48;61.21;101494.94;5081967;28;20371;-55
2022/06/29 01:42:35;;;;;;;;;;;;;;;17.44;61.12;101489.13;5078012;28;20321;-55
2022/06/29 01:45:01;;;;;;;;;;;;;;;17.37;61.01;101482.09;5083946;28;20440;-55
2022/06/29 01:47:26;;;;;;;;;;;;;;;17.39;61.03;101490.75;5082532;28;19920;-52
2022/06/29 01:49:51;;;;;;;;;;;;;;;17.35;60.98;101487.66;5082986;28;19934;-54
2022/06/29 01:52:17;;;;;;;;;;;;;;;17.33;61.15;101487.00;5080704;28;20371;-52
2022/06/29 01:54:42;;;;;;;;;;;;;;;17.31;60.82;101487.19;5083007;28;20027;-53
2022/06/29 01:57:07;;;;;;;;;;;;;;;17.30;61.19;101487.41;5080302;28;19915;-55
2022/06/29 01:59:32;;;;;;;;;;;;;;;17.28;61.07;101478.72;5082018;28;19920;-54
2022/06/29 02:01:57;;;;;;;;;;;;;;;17.26;61.59;101478.91;5081241;28;19998;-54
2022/06/29 02:04:23;;;;;;;;;;;;;;;17.24;61.80;101474.78;5079566;28;19974;-54
2022/06/29 02:06:48;;;;;;;;;;;;;;;17.21;61.53;101469.81;5082707;28;19959;-55
2022/06/29 02:09:13;;;;;;;;;;;;;;;17.18;61.51;101468.34;5083830;28;19969;-54
2022/06/29 02:11:38;;;;;;;;;;;;;;;17.16;61.92;101459.66;5080151;28;19950;-52
2022/06/29 02:14:03;;;;;;;;;;;;;;;17.14;61.46;101466.25;5077764;28;20007;-52
2022/06/29 02:16:29;;;;;;;;;;;;;;;17.12;61.36;101473.69;5083287;28;19911;-53
2022/06/29 02:18:54;;;;;;;;;;;;;;;17.09;61.79;101474.91;5079769;28;19919;-54
2022/06/29 02:21:19;;;;;;;;;;;;;;;17.06;61.93;101475.31;5080554;28;19920;-53
2022/06/29 02:23:45;;;;;;;;;;;;;;;17.05;61.81;101476.31;5079202;28;19923;-56
2022/06/29 02:26:10;;;;;;;;;;;;;;;17.04;61.94;101478.16;5082481;28;19969;-53
2022/06/29 02:28:35;;;;;;;;;;;;;;;17.04;61.45;101478.16;5082462;28;19924;-53
2022/06/29 02:36:29;;;;;;;;;;;;;;;17.00;62.40;101473.41;5082526;28;19919;-52
2022/06/29 02:38:54;;;;;;;;;;;;;;;16.98;62.26;101468.22;5079864;28;19912;-53
2022/06/29 02:41:20;;;;;;;;;;;;;;;16.98;62.32;101468.22;5081214;28;21578;-54
2022/06/29 02:43:45;;;;;;;;;;;;;;;16.98;62.42;101460.19;5080137;28;19915;-54
2022/06/29 02:46:11;;;;;;;;;;;;;;;16.99;62.28;101466.38;5080415;28;19919;-55
2022/06/29 02:48:36;;;;;;;;;;;;;;;16.98;62.14;101467.41;5081935;28;20374;-54
2022/06/29 02:51:01;;;;;;;;;;;;;;;16.96;62.53;101462.22;5078986;28;20035;-56
2022/06/29 02:53:27;;;;;;;;;;;;;;;16.96;62.37;101456.88;5078288;28;20777;-54
2022/06/29 02:55:52;;;;;;;;;;;;;;;16.95;62.37;101455.22;5082121;28;20291;-52
2022/06/29 02:58:17;;;;;;;;;;;;;;;16.94;61.95;101461.59;5079884;28;20278;-54
2022/06/29 03:00:42;;;;;;;;;;;;;;;16.92;61.64;101458.28;5080020;28;20019;-52
2022/06/29 03:03:07;;;;;;;;;;;;;;;16.90;61.93;101454.16;5079644;28;19919;-54
2022/06/29 03:05:32;;;;;;;;;;;;;;;16.89;62.17;101447.13;5080128;28;19919;-54
2022/06/29 03:07:58;;;;;;;;;;;;;;;16.89;62.46;101447.13;5080088;28;19920;-56
2022/06/29 03:10:23;;;;;;;;;;;;;;;16.88;62.45;101446.31;5080211;28;20010;-52
2022/06/29 03:12:48;;;;;;;;;;;;;;;16.87;62.61;101450.00;5078601;28;19918;-55
2022/06/29 03:15:13;;;;;;;;;;;;;;;16.86;62.73;101434.13;5080935;28;19920;-53
2022/06/29 03:17:38;;;;;;;;;;;;;;;16.85;62.49;101443.19;5082121;28;20257;-54
2022/06/29 03:20:05;;;;;;;;;;;;;;;16.83;62.75;101443.38;5081893;28;20290;-54
2022/06/29 03:22:31;;;;;;;;;;;;;;;16.82;63.15;101447.09;5079728;28;19957;-54
2022/06/29 03:24:56;;;;;;;;;;;;;;;16.79;63.31;101438.63;5082417;28;19916;-55
2022/06/29 03:27:21;;;;;;;;;;;;;;;16.78;63.20;101436.97;5081731;28;19947;-54
2022/06/29 03:29:47;;;;;;;;;;;;;;;16.77;63.35;101432.59;5082101;28;19926;-55
2022/06/29 03:32:12;;;;;;;;;;;;;;;16.73;63.43;101424.94;5080378;28;19912;-54
2022/06/29 03:34:37;;;;;;;;;;;;;;;16.72;63.57;101425.13;5079508;28;19912;-55
2022/06/29 03:37:02;;;;;;;;;;;;;;;16.73;63.39;101421.44;5084073;28;20363;-56
2022/06/29 03:39:27;;;;;;;;;;;;;;;16.71;63.12;101418.13;5076905;28;19926;-54
2022/06/29 03:41:53;;;;;;;;;;;;;;;16.68;63.58;101416.66;5077801;28;19962;-54
2022/06/29 03:44:18;;;;;;;;;;;;;;;16.67;63.47;101412.31;5083184;28;19957;-54
2022/06/29 03:46:43;;;;;;;;;;;;;;;16.66;63.88;101413.34;5086178;28;21436;-53
2022/06/29 03:49:08;;;;;;;;;;;;;;;16.63;64.36;101410.19;5082861;28;19916;-55
2022/06/29 03:51:33;;;;;;;;;;;;;;;16.60;64.63;101414.09;5081169;28;20022;-54
2022/06/29 03:53:59;;;;;;;;;;;;;;;16.58;64.90;101418.00;5083877;28;19916;-54
2022/06/29 03:56:24;;;;;;;;;;;;;;;16.59;64.74;101411.63;5083681;28;19979;-54
2022/06/29 03:58:49;;;;;;;;;;;;;;;16.57;65.20;101409.13;5084067;28;19931;-55
2022/06/29 04:01:14;;;;;;;;;;;;;;;16.55;65.26;101405.81;5084384;28;19923;-54
2022/06/29 04:03:39;;;;;;;;;;;;;;;16.54;65.35;101406.84;5082647;28;19939;-54
2022/06/29 04:06:05;;;;;;;;;;;;;;;16.50;65.80;101402.91;5084615;28;19919;-55
2022/06/29 04:08:30;;;;;;;;;;;;;;;16.51;65.94;101403.75;5083140;28;19924;-55
2022/06/29 04:10:55;;;;;;;;;;;;;;;16.48;66.12;101402.28;5081653;28;19916;-55
2022/06/29 04:13:22;;;;;;;;;;;;;;;16.48;65.80;101404.97;5083481;28;19920;-55
2022/06/29 04:15:47;;;;;;;;;;;;;;;16.48;66.03;101398.75;5081090;28;19968;-51
2022/06/29 04:18:13;;;;;;;;;;;;;;;16.49;66.21;101405.78;5085360;28;20010;-53
2022/06/29 04:23:22;;;;;;;;;;;;;;;16.50;66.71;101400.22;5083531;28;20049;-52
2022/06/29 04:25:47;;;;;;;;;;;;;;;16.50;66.76;101396.72;5084084;28;20018;-55
2022/06/29 04:28:12;;;;;;;;;;;;;;;16.49;66.59;101401.25;5084053;28;19923;-55
2022/06/29 04:30:37;;;;;;;;;;;;;;;16.50;66.18;101400.22;5081908;28;19999;-56
2022/06/29 04:33:02;;;;;;;;;;;;;;;16.51;66.35;101407.25;5081146;28;20525;-54
2022/06/29 04:35:28;;;;;;;;;;;;;;;16.54;66.44;101406.03;5083372;28;20391;-53
2022/06/29 04:37:53;;;;;;;;;;;;;;;16.55;66.17;101400.47;5083947;28;20003;-53
2022/06/29 04:40:18;;;;;;;;;;;;;;;16.57;66.57;101392.22;5084843;28;19950;-54
2022/06/29 04:42:43;;;;;;;;;;;;;;;16.58;66.65;101391.19;5077933;28;19916;-53
2022/06/29 04:46:19;;;;;;;;;;;;;;;16.60;66.53;101392.66;5083466;28;20532;-54
2022/06/29 04:48:00;;;;;;;;;;;;;;;16.64;66.38;101387.72;5081406;28;19927;-54
2022/06/29 04:50:25;;;;;;;;;;;;;;;16.65;66.17;101395.56;5082269;28;20482;-56
2022/06/29 04:52:50;;;;;;;;;;;;;;;16.72;66.09;101395.63;5084583;28;20087;-53
2022/06/29 04:55:16;;;;;;;;;;;;;;;16.75;66.60;101397.91;5082641;28;20408;-53
2022/06/29 04:57:41;;;;;;;;;;;;;;;16.78;66.71;101397.56;5083624;28;19955;-55
2022/06/29 05:00:06;;;;;;;;;;;;;;;16.81;66.85;101399.84;5083465;28;20000;-54
2022/06/29 05:02:32;;;;;;;;;;;;;;;16.84;66.77;101399.44;5079991;28;20376;-52
2022/06/29 05:04:57;;;;;;;;;;;;;;;16.88;66.60;101398.00;5080938;28;19942;-54
2022/06/29 05:07:22;;;;;;;;;;;;;;;16.95;66.07;101398.03;5082277;28;19916;-52
2022/06/29 05:09:47;;;;;;;;;;;;;;;17.00;66.71;101388.34;5084702;28;19926;-52
2022/06/29 05:12:12;;;;;;;;;;;;;;;17.08;66.56;101389.25;5083168;28;19930;-55
2022/06/29 05:14:37;;;;;;;;;;;;;;;17.14;67.03;101386.56;5081546;28;19995;-54
2022/06/29 05:17:03;;;;;;;;;;;;;;;17.23;66.99;101387.22;5084661;28;20382;-54
2022/06/29 05:19:28;;;;;;;;;;;;;;;17.32;67.12;101383.31;5080804;28;19923;-54
2022/06/29 05:21:53;;;;;;;;;;;;;;;17.41;67.14;101386.69;5082141;28;19911;-53
2022/06/29 05:24:18;;;;;;;;;;;;;;;17.48;66.69;101376.78;5083291;28;19973;-55
2022/06/29 05:26:43;;;;;;;;;;;;;;;17.55;66.75;101377.59;5078881;28;19920;-52
2022/06/29 05:29:08;;;;;;;;;;;;;;;17.58;66.11;101372.66;5078302;28;20033;-52
2022/06/29 05:31:34;;;;;;;;;;;;;;;17.62;66.65;101376.59;5080500;28;19916;-54
2022/06/29 05:33:59;;;;;;;;;;;;;;;17.66;66.09;101377.03;5083187;28;19922;-54
2022/06/29 05:36:24;;;;;;;;;;;;;;;17.71;65.92;101371.06;5083239;28;20402;-54
2022/06/29 05:38:49;;;;;;;;;;;;;;;17.75;65.85;101375.81;5084537;28;19912;-54
2022/06/29 05:41:15;;;;;;;;;;;;;;;17.82;66.40;101378.50;5088167;28;19999;-53
2022/06/29 05:43:40;;;;;;;;;;;;;;;17.87;66.16;101386.78;5084610;28;19934;-52
2022/06/29 05:46:06;;;;;;;;;;;;;;;17.94;66.37;101371.53;5088870;28;19961;-55
2022/06/29 05:48:32;;;;;;;;;;;;;;;18.02;66.10;101373.16;5086051;28;20405;-52
2022/06/29 05:50:57;;;;;;;;;;;;;;;18.07;65.55;101373.38;5080656;28;19916;-54
2022/06/29 05:53:22;;;;;;;;;;;;;;;18.08;65.24;101377.72;5083879;28;19916;-52
2022/06/29 05:55:47;;;;;;;;;;;;;;;18.13;65.77;101376.06;5085602;28;20033;-55
2022/06/29 05:58:18;;;;;;;;;;;;;;;18.20;65.28;101374.19;5087829;28;20370;-52
2022/06/29 06:00:43;;;;;;;;;;;;;;;18.27;65.40;101380.41;5088376;28;20323;-51
2022/06/29 06:03:09;;;;;;;;;;;;;;;18.31;65.07;101385.38;5086477;28;19915;-52
2022/06/29 06:05:34;;;;;;;;;;;;;;;18.38;64.73;101391.56;5089471;28;19964;-54
2022/06/29 06:07:59;;;;;;;;;;;;;;;18.45;65.22;101378.91;5087639;28;19916;-52
2022/06/29 06:10:25;;;;;;;;;;;;;;;18.55;65.62;101374.78;5088405;28;19919;-52
2022/06/29 06:12:50;;;;;;;;;;;;;;;18.64;64.96;101388.03;5061636;28;19931;-54
2022/06/29 06:15:15;;;;;;;;;;;;;;;18.69;64.86;101380.16;5075933;28;19954;-53
2022/06/29 06:17:41;;;;;;;;;;;;;;;18.73;64.49;101387.59;5080521;28;19916;-53
2022/06/29 06:20:06;;;;;;;;;;;;;;;18.77;63.65;101380.75;5080828;28;19926;-54
2022/06/29 06:22:31;;;;;;;;;;;;;;;18.79;63.81;101376.00;5079266;28;20020;-54
2022/06/29 06:24:56;;;;;;;;;;;;;;;18.83;64.02;101382.59;5083719;28;20420;-54
2022/06/29 06:27:22;;;;;;;;;;;;;;;18.90;63.96;101384.44;5081290;28;19919;-55
2022/06/29 06:29:47;;;;;;;;;;;;;;;18.95;64.29;101384.63;5083203;28;19933;-52
2022/06/29 06:32:12;;;;;;;;;;;;;;;19.01;63.86;101378.38;5081030;28;19912;-55
2022/06/29 06:34:37;;;;;;;;;;;;;;;19.07;63.85;101380.22;5085071;28;20410;-52
2022/06/29 06:37:03;;;;;;;;;;;;;;;19.11;63.84;101371.53;5084411;28;19918;-52
2022/06/29 06:39:28;;;;;;;;;;;;;;;19.18;63.70;101375.03;5085299;28;19908;-54
2022/06/29 06:41:53;;;;;;;;;;;;;;;19.24;63.46;101373.31;5086021;28;19912;-55
2022/06/29 06:44:18;;;;;;;;;;;;;;;19.29;63.42;101370.00;5087079;28;19908;-55
2022/06/29 06:46:48;;;;;;;;;;;;;;;19.35;63.37;101386.09;5086389;28;20015;-52
2022/06/29 06:49:14;;;;;;;;;;;;;;;19.42;63.62;101386.91;5086044;28;19927;-54
2022/06/29 06:51:39;;;;;;;;;;;;;;;19.51;63.61;101379.41;5086518;28;19908;-54
2022/06/29 06:54:05;;;;;;;;;;;;;;;19.59;63.84;101375.66;5088279;28;19912;-52
2022/06/29 06:56:30;;;;;;;;;;;;;;;19.68;63.81;101380.59;5087879;28;19961;-53
2022/06/29 06:58:55;;;;;;;;;;;;;;;19.74;63.85;101374.31;5088313;28;19912;-53
2022/06/29 07:01:20;;;;;;;;;;;;;;;19.83;64.15;101380.25;5086448;28;20433;-54
2022/06/29 07:03:45;;;;;;;;;;;;;;;19.89;63.81;101384.78;5088439;28;19908;-54
2022/06/29 07:06:11;;;;;;;;;;;;;;;19.95;63.77;101380.38;5069444;28;19908;-54
2022/06/29 07:08:37;;;;;;;;;;;;;;;20.03;63.81;101385.50;5087073;28;20002;-53
2022/06/29 07:11:02;;;;;;;;;;;;;;;20.09;63.95;101385.44;5087426;28;20022;-53
2022/06/29 07:13:28;;;;;;;;;;;;;;;20.17;63.86;101386.22;5086389;28;19912;-54
2022/06/29 07:15:53;;;;;;;;;;;;;;;20.22;63.10;101376.41;5088197;28;19969;-55
2022/06/29 07:18:19;;;;;;;;;;;;;;;20.27;62.49;101376.59;5085746;28;19920;-53
2022/06/29 07:20:44;;;;;;;;;;;;;;;20.34;62.60;101374.66;5089151;28;19911;-53
2022/06/29 07:23:09;;;;;;;;;;;;;;;20.42;62.43;101378.97;5089101;28;20006;-52
2022/06/29 07:25:35;;;;;;;;;;;;;;;20.47;62.54;101383.69;5091589;28;19912;-53
2022/06/29 07:28:00;;;;;;;;;;;;;;;20.54;62.06;101379.91;5091833;28;19951;-53
2022/06/29 07:30:25;;;;;;;;;;;;;;;20.61;62.37;101377.94;5091706;28;19916;-51
2022/06/29 07:32:50;;;;;;;;;;;;;;;20.68;62.34;101383.28;5090453;28;19918;-53
2022/06/29 07:35:15;;;;;;;;;;;;;;;20.75;62.43;101369.69;5092008;28;19968;-51
2022/06/29 07:37:42;;;;;;;;;;;;;;;20.81;62.16;101374.19;5091590;28;19908;-53
2022/06/29 07:40:08;;;;;;;;;;;;;;;20.82;61.67;101371.28;5092234;28;19919;-51
2022/06/29 07:42:35;;;;;;;;;;;;;;;20.85;61.78;101376.25;5086814;28;19916;-54
2022/06/29 07:45:00;;;;;;;;;;;;;;;20.90;61.75;101370.97;5091673;28;19911;-54
2022/06/29 07:47:25;;;;;;;;;;;;;;;20.97;61.67;101373.59;5089649;28;20432;-55
2022/06/29 07:49:51;;;;;;;;;;;;;;;21.01;61.63;101369.38;5091030;28;19915;-52
2022/06/29 07:52:16;;;;;;;;;;;;;;;21.07;61.83;101363.06;5089152;28;19912;-53
2022/06/29 07:54:41;;;;;;;;;;;;;;;21.15;61.99;101364.66;5089496;28;19918;-52
2022/06/29 07:57:06;;;;;;;;;;;;;;;21.22;61.94;101371.63;5090089;28;19943;-54
2022/06/29 07:59:32;;;;;;;;;;;;;;;21.26;61.47;101370.13;5085301;28;19908;-55
2022/06/29 08:01:57;;;;;;;;;;;;;;;21.31;61.36;101359.47;5087843;28;19911;-54
2022/06/29 08:04:22;;;;;;;;;;;;;;;21.40;61.37;101351.88;5085177;28;20333;-53
2022/06/29 08:06:47;;;;;;;;;;;;;;;21.48;61.18;101358.84;5087818;28;19916;-53
2022/06/29 08:09:12;;;;;;;;;;;;;;;21.56;60.98;101350.41;5083585;28;19923;-54
2022/06/29 08:11:38;;;;;;;;;;;;;;;21.64;60.75;101350.06;5080049;28;19923;-54
2022/06/29 08:14:03;;;;;;;;;;;;;;;21.72;60.14;101355.16;5089903;28;20428;-55
2022/06/29 08:16:29;;;;;;;;;;;;;;;21.80;60.20;101348.56;5088683;28;20430;-55
2022/06/29 08:18:54;;;;;;;;;;;;;;;21.90;60.32;101349.63;5089706;28;19908;-54
2022/06/29 08:21:20;;;;;;;;;;;;;;;22.00;59.64;101357.19;5088789;28;19908;-53
2022/06/29 08:23:45;;;;;;;;;;;;;;;22.09;59.32;101349.59;5085586;28;19922;-53
2022/06/29 08:26:10;;;;;;;;;;;;;;;22.19;59.59;101364.16;5090272;28;20007;-54
2022/06/29 08:28:35;;;;;;;;;;;;;;;22.33;58.94;101362.06;5089726;28;20014;-56
2022/06/29 08:31:00;;;;;;;;;;;;;;;22.44;58.42;101350.41;5087334;28;19967;-52
2022/06/29 08:33:25;;;;;;;;;;;;;;;22.53;58.23;101340.84;5091154;28;19965;-53
2022/06/29 08:35:51;;;;;;;;;;;;;;;22.64;58.18;101351.91;5087095;28;19912;-52
2022/06/29 08:38:17;;;;;;;;;;;;;;;22.74;57.83;101346.72;5089964;28;19908;-53
2022/06/29 08:40:44;;;;;;;;;;;;;;;22.86;57.55;101345.66;5090363;28;20621;-55
2022/06/29 08:43:13;;;;;;;;;;;;;;;23.01;57.17;101347.84;5089667;28;19911;-55
2022/06/29 08:45:40;;;;;;;;;;;;;;;23.16;57.09;101345.44;5089522;28;19931;-54
2022/06/29 08:48:06;;;;;;;;;;;;;;;23.31;55.90;101344.06;5087074;28;20006;-56
2022/06/29 08:50:31;;;;;;;;;;;;;;;23.42;55.54;101344.03;5086022;28;20011;-55
2022/06/29 08:52:58;;;;;;;;;;;;;;;23.53;54.94;101345.03;5089460;28;19909;-53
2022/06/29 08:55:24;;;;;;;;;;;;;;;23.69;54.86;101340.72;5088624;28;19908;-54
2022/06/29 08:57:49;;;;;;;;;;;;;;;23.84;53.90;101340.16;5086505;28;19957;-53
2022/06/29 09:00:15;;;;;;;;;;;;;;;24.00;54.04;101344.78;5089455;28;19908;-55
2022/06/29 09:02:40;;;;;;;;;;;;;;;24.16;53.13;101341.22;5089198;28;19914;-55
2022/06/29 09:05:06;;;;;;;;;;;;;;;24.30;53.55;101339.03;5088079;28;19916;-53
2022/06/29 09:07:31;;;;;;;;;;;;;;;24.37;53.00;101335.06;5089934;28;19919;-55
2022/06/29 09:10:07;;;;;;;;;;;;;;;24.37;53.01;101339.66;5085883;28;19912;-54
2022/06/29 09:12:33;;;;;;;;;;;;;;;24.29;52.99;101335.50;5085136;28;20351;-55
2022/06/29 09:14:58;;;;;;;;;;;;;;;24.24;52.39;101342.69;5089295;28;19958;-53
2022/06/29 09:17:24;;;;;;;;;;;;;;;24.18;52.95;101330.09;5088665;28;20272;-53
2022/06/29 09:19:50;;;;;;;;;;;;;;;24.24;53.63;101337.25;5090293;28;20154;-53
2022/06/29 09:22:15;;;;;;;;;;;;;;;24.25;53.55;101336.19;5088026;28;20216;-54
2022/06/29 09:24:41;;;;;;;;;;;;;;;24.32;53.87;101345.84;5089302;28;20332;-52
2022/06/29 09:27:07;;;;;;;;;;;;;;;24.40;52.88;101339.97;5089153;28;20378;-55
2022/06/29 09:29:33;;;;;;;;;;;;;;;24.54;52.80;101337.72;5088879;28;20283;-53
2022/06/29 09:32:03;;;;;;;;;;;;;;;24.68;53.07;101340.91;5085212;28;19912;-55
2022/06/29 09:34:29;;;;;;;;;;;;;;;24.83;53.28;101332.91;5086392;28;20303;-52
2022/06/29 09:36:55;;;;;;;;;;;;;;;24.99;53.38;101336.69;5089072;28;19908;-52
2022/06/29 09:39:38;;;;;;;;;;;;;;;25.11;53.20;101336.53;5089274;28;20356;-53
2022/06/29 09:42:04;;;;;;;;;;;;;;;25.19;52.28;101331.47;5087847;28;19963;-56
2022/06/29 09:44:30;;;;;;;;;;;;;;;25.25;51.71;101335.06;5088557;28;19911;-55
2022/06/29 09:46:55;;;;;;;;;;;;;;;25.25;51.08;101335.06;5087978;28;19964;-54
2022/06/29 09:49:25;;;;;;;;;;;;;;;25.22;51.33;101338.31;5088031;28;20279;-55
2022/06/29 09:51:55;;;;;;;;;;;;;;;25.21;50.89;101336.66;5087213;28;19965;-52
2022/06/29 09:54:23;;;;;;;;;;;;;;;25.22;50.87;101336.41;5089097;28;19912;-55
2022/06/29 09:56:49;;;;;;;;;;;;;;;25.24;50.96;101336.16;5087996;28;19908;-54
2022/06/29 09:59:23;;;;;;;;;;;;;;;25.29;50.45;101334.28;5088757;28;19966;-53
2022/06/29 10:04:33;;;;;;;;;;;;;;;25.46;48.72;101334.19;5089415;28;19915;-54
2022/06/29 10:06:58;;;;;;;;;;;;;;;25.57;49.06;101333.22;5085965;28;19912;-54
2022/06/29 10:09:23;;;;;;;;;;;;;;;25.71;49.85;101321.91;5087359;28;19938;-54
2022/06/29 10:15:03;;;;;;;;;;;;;;;26.08;47.22;101327.38;5089565;28;19954;-54
2022/06/29 10:17:46;;;;;;;;;;;;;;;26.24;47.76;101321.75;5088567;28;19908;-54
2022/06/29 10:20:30;;;;;;;;;;;;;;;26.35;47.58;101324.59;5083490;28;20359;-55
2022/06/29 10:22:55;;;;;;;;;;;;;;;26.38;47.98;101327.59;5085563;28;19939;-53
2022/06/29 10:25:27;;;;;;;;;;;;;;;26.45;47.82;101324.63;5086101;28;19966;-53
2022/06/29 10:28:07;;;;;;;;;;;;;;;26.50;46.47;101322.75;5088430;28;19912;-52
2022/06/29 10:30:33;;;;;;;;;;;;;;;26.68;45.07;101318.75;5087975;28;19912;-54
2022/06/29 10:33:17;;;;;;;;;;;;;;;26.83;43.37;101313.34;5084316;28;20366;-53
2022/06/29 10:36:05;;;;;;;;;;;;;;;26.98;43.19;101311.78;5085405;28;19991;-56
2022/06/29 10:38:31;;;;;;;;;;;;;;;27.18;44.46;101317.31;5074356;28;19918;-54
2022/06/29 10:41:10;;;;;;;;;;;;;;;27.21;42.82;101318.69;5083837;28;19916;-55
2022/06/29 10:43:38;;;;;;;;;;;;;;;27.24;43.79;101309.97;5085962;28;20387;-55
2022/06/29 10:46:03;;;;;;;;;;;;;;;27.21;42.05;101311.31;5087696;28;19915;-53
2022/06/29 10:48:31;;;;;;;;;;;;;;;27.17;41.29;101302.03;5086976;28;19920;-53
2022/06/29 10:50:56;;;;;;;;;;;;;;;27.14;41.30;101299.84;5087084;28;20369;-52
2022/06/29 10:53:22;;;;;;;;;;;;;;;27.04;42.13;101300.66;5086307;28;19912;-53
2022/06/29 10:55:48;;;;;;;;;;;;;;;26.96;43.12;101292.16;5088351;28;19992;-52
2022/06/29 10:58:14;;;;;;;;;;;;;;;26.80;41.88;101285.81;5088213;28;19914;-54
2022/06/29 11:00:41;;;;;;;;;;;;;;;26.71;41.55;101280.06;5088025;28;19912;-54
2022/06/29 11:03:17;;;;;;;;;;;;;;;26.63;41.53;101283.31;5085531;28;19919;-55
2022/06/29 11:13:58;;;;;;;;;;;;;;;26.41;43.07;101279.94;5083851;28;19958;-55
2022/06/29 11:16:27;;;;;;;;;;;;;;;26.60;43.61;101280.28;5088560;28;19957;-52
2022/06/29 11:18:56;;;;;;;;;;;;;;;26.77;43.50;101281.72;5087272;28;19912;-54
2022/06/29 11:21:21;;;;;;;;;;;;;;;26.96;43.05;101273.88;5086343;28;20271;-55
2022/06/29 11:23:53;;;;;;;;;;;;;;;27.07;41.07;101272.84;5085114;28;19912;-55
2022/06/29 11:26:21;;;;;;;;;;;;;;;27.04;41.28;101280.75;5087274;28;19981;-55
2022/06/29 11:28:47;;;;;;;;;;;;;;;27.04;41.95;101280.75;5087980;28;19965;-55
2022/06/29 11:31:12;;;;;;;;;;;;;;;27.00;42.00;101277.75;5086097;28;19912;-53
2022/06/29 11:33:42;;;;;;;;;;;;;;;27.03;41.86;101274.47;5083482;28;19920;-54
2022/06/29 11:36:13;;;;;;;;;;;;;;;27.07;41.56;101264.66;5087042;28;19908;-52
2022/06/29 11:38:39;;;;;;;;;;;;;;;27.10;41.06;101268.75;5087939;28;20000;-56
2022/06/29 11:41:11;;;;;;;;;;;;;;;27.11;41.43;101260.28;5082998;28;20019;-52
2022/06/29 11:43:37;;;;;;;;;;;;;;;27.17;41.80;101261.13;5086489;28;19981;-55
2022/06/29 11:46:02;;;;;;;;;;;;;;;27.20;41.63;101265.25;5087148;28;20479;-53
2022/06/29 11:48:28;;;;;;;;;;;;;;;27.22;42.05;101261.16;5087639;28;20233;-55
2022/06/29 11:50:56;;;;;;;;;;;;;;;27.23;41.77;101256.50;5084385;28;20237;-54
2022/06/29 11:53:40;;;;;;;;;;;;;;;27.18;41.51;101254.59;5080169;28;19912;-52
2022/06/29 11:56:06;;;;;;;;;;;;;;;27.17;41.50;101258.38;5084656;28;19911;-54
2022/06/29 11:58:32;;;;;;;;;;;;;;;27.28;42.14;101251.06;5078753;28;19918;-55
2022/06/29 12:00:57;;;;;;;;;;;;;;;27.39;41.53;101247.22;5083645;28;19937;-55
2022/06/29 12:03:22;;;;;;;;;;;;;;;27.37;41.67;101250.22;5077481;28;19926;-52
2022/06/29 12:05:57;;;;;;;;;;;;;;;27.36;42.61;101245.88;5080230;28;20403;-56
2022/06/29 12:08:23;;;;;;;;;;;;;;;27.44;43.02;101250.78;5086276;28;19984;-54
2022/06/29 12:10:48;;;;;;;;;;;;;;;27.40;42.93;101241.50;5087866;28;20413;-55
2022/06/29 12:13:13;;;;;;;;;;;;;;;27.33;41.76;101246.41;5086306;28;19955;-55
2022/06/29 12:15:38;;;;;;;;;;;;;;;27.28;41.35;101237.41;5084430;28;20055;-55
2022/06/29 12:18:03;;;;;;;;;;;;;;;27.27;41.90;101233.06;5089236;28;19916;-54
2022/06/29 12:20:28;;;;;;;;;;;;;;;27.30;42.40;101237.97;5089146;28;20011;-54
2022/06/29 12:22:54;;;;;;;;;;;;;;;27.35;42.51;101238.78;5086305;28;19918;-54
2022/06/29 12:25:22;;;;;;;;;;;;;;;27.44;41.95;101233.59;5083758;28;19912;-53
2022/06/29 12:27:47;;;;;;;;;;;;;;;27.44;41.65;101234.41;5083428;28;19997;-55
2022/06/29 12:30:12;;;;;;;;;;;;;;;27.39;41.54;101239.88;5089736;28;20139;-53
2022/06/29 12:32:37;;;;;;;;;;;;;;;27.27;41.23;101239.31;5086484;28;19941;-52
2022/06/29 12:35:03;;;;;;;;;;;;;;;27.23;41.27;101229.25;5089598;28;19945;-55
2022/06/29 12:37:28;;;;;;;;;;;;;;;27.21;41.10;101232.25;5089042;28;19912;-54
2022/06/29 12:39:53;;;;;;;;;;;;;;;27.24;41.72;101226.25;5089482;28;19908;-57
2022/06/29 12:42:19;;;;;;;;;;;;;;;27.36;41.44;101223.22;5086459;28;19927;-54
2022/06/29 12:44:44;;;;;;;;;;;;;;;27.57;40.41;101235.78;5085807;28;19951;-52
2022/06/29 12:47:09;;;;;;;;;;;;;;;27.64;40.09;101233.59;5089152;28;20002;-54
2022/06/29 12:49:34;;;;;;;;;;;;;;;27.79;41.01;101227.31;5086031;28;19915;-54
2022/06/29 12:51:59;;;;;;;;;;;;;;;27.82;40.09;101232.22;5088093;28;19954;-55